MMAS/AGU METAR and TAF weather

Enter ICAO airport designator
Station Type Date Time Source
MMAS METAR 2019/08/22 04:40 UTC NOAA

MMAS 220440Z 21009KT 9SM SCT100 SCT200 21/11 A3026 RMK 8/038


Station Type Date Time Source
MMAS Decoded METAR 2019/08/22 04:40 UTC NOAA

Station name not available
Aug 22, 2019 - 12:40 AM EDT / 2019.08.22 0440 UTC
Wind: from the SSW (210 degrees) at 10 MPH (9 KT):0
Visibility: 9 mile(s):0
Sky conditions: partly cloudy
Temperature: 69 F (21 C)
Dew Point: 51 F (11 C)
Relative Humidity: 52%
Pressure (altimeter): 30.26 in. Hg (1024 hPa)
ob: MMAS 220440Z 21009KT 9SM SCT100 SCT200 21/11 A3026 RMK 8/038
cycle: 4

Station Type Date Time Source
MMAS TAF 2019/08/22 06:04 UTC NOAA

TAF MMAS 220502Z 2206/2306 04004KT P6SM SCT100 SCT200
FM221800 15010KT P6SM SCT030 SCT090 BKN220 PROB40 2222/2302 5SM -TSRA BKN030CB OVC090
FM230500 26005KT P6SM SCT030 BKN090 BKN220

Example: see airport list